createdAt,value
2019-02-16T00:03:31.141Z,64.74
2019-02-16T00:08:33.032Z,64.79
2019-02-16T00:13:35.821Z,64.68
2019-02-16T00:18:37.736Z,64.61
2019-02-16T00:23:39.619Z,64.23
2019-02-16T00:28:41.562Z,64.62
2019-02-16T00:33:43.496Z,64.86
2019-02-16T00:38:45.414Z,64.43
2019-02-16T00:43:47.568Z,64.05
2019-02-16T00:48:49.448Z,63.43
2019-02-16T00:53:51.337Z,63.74
2019-02-16T00:58:53.572Z,64.26
2019-02-16T01:03:55.452Z,64.13
2019-02-16T01:08:57.350Z,63.84
2019-02-16T01:13:59.442Z,64.46
2019-02-16T01:19:02.429Z,64.45
2019-02-16T01:24:04.328Z,64.01
2019-02-16T01:29:07.381Z,64.46
2019-02-16T01:34:09.301Z,64.54
2019-02-16T01:39:11.212Z,64.10
2019-02-16T01:44:13.223Z,63.32
2019-02-16T01:49:15.123Z,63.60
2019-02-16T01:54:17.029Z,65.20
2019-02-16T01:59:19.036Z,65.08
2019-02-16T02:04:21.518Z,65.42
2019-02-16T02:09:24.015Z,65.42
2019-02-16T02:14:26.039Z,65.57
2019-02-16T02:19:28.029Z,65.90
2019-02-16T02:24:29.944Z,65.99
2019-02-16T02:29:31.915Z,64.95
2019-02-16T02:34:33.794Z,64.95
2019-02-16T02:39:37.030Z,64.58
2019-02-16T02:44:38.932Z,64.63
2019-02-16T02:49:40.917Z,64.83
2019-02-16T02:54:42.838Z,65.12
2019-02-16T02:59:44.777Z,65.83
2019-02-16T03:04:46.660Z,65.09
2019-02-16T03:09:48.590Z,64.89
2019-02-16T03:14:50.556Z,64.89
2019-02-16T03:19:52.447Z,64.89
2019-02-16T03:24:54.365Z,65.83
2019-02-16T03:30:22.423Z,66.22
2019-02-16T03:36:06.160Z,66.22
2019-02-16T03:41:08.130Z,66.30
2019-02-16T03:46:10.065Z,66.30
2019-02-16T03:51:12.046Z,66.99
2019-02-16T03:56:13.951Z,66.81
2019-02-16T04:01:16.180Z,66.94
2019-02-16T04:06:18.055Z,67.04
2019-02-16T04:11:20.249Z,66.79
2019-02-16T04:16:22.337Z,66.56
2019-02-16T04:21:24.276Z,66.28
2019-02-16T04:26:27.423Z,65.63
2019-02-16T04:31:29.364Z,65.32
2019-02-16T04:36:31.627Z,66.25
2019-02-16T04:41:33.603Z,66.53
2019-02-16T04:46:35.509Z,67.35
2019-02-16T04:51:37.397Z,67.56
2019-02-16T04:56:39.428Z,66.71
2019-02-16T05:01:41.427Z,66.08
2019-02-16T05:06:43.355Z,66.00
2019-02-16T05:11:45.299Z,65.72
2019-02-16T05:16:47.289Z,65.72
2019-02-16T05:21:49.187Z,66.00
2019-02-16T05:26:51.116Z,66.80
2019-02-16T05:31:53.542Z,67.66
2019-02-16T05:36:55.673Z,67.62
2019-02-16T05:41:57.617Z,67.31
2019-02-16T05:46:59.504Z,67.97
2019-02-16T05:52:01.489Z,67.69
2019-02-16T05:57:03.446Z,66.72
2019-02-16T06:02:05.402Z,66.72
2019-02-16T06:07:07.318Z,65.67
2019-02-16T06:12:09.869Z,65.67
2019-02-16T06:17:11.788Z,65.74
2019-02-16T06:22:13.795Z,65.64
2019-02-16T06:27:19.562Z,65.67
2019-02-16T06:32:21.636Z,65.78
2019-02-16T06:37:24.374Z,65.39
2019-02-16T06:42:29.411Z,65.12
2019-02-16T06:47:31.311Z,65.20
2019-02-16T06:52:33.253Z,64.86
2019-02-16T06:57:35.208Z,64.68
2019-02-16T07:02:37.146Z,63.95
2019-02-16T07:07:39.043Z,63.95
2019-02-16T07:12:41.942Z,63.41
2019-02-16T07:17:48.575Z,63.26
2019-02-16T07:22:50.569Z,63.26
2019-02-16T07:27:52.481Z,63.31
2019-02-16T07:32:54.430Z,62.66
2019-02-16T07:37:56.456Z,61.94
2019-02-16T07:42:59.076Z,62.26
2019-02-16T07:48:15.101Z,61.60
2019-02-16T07:53:31.356Z,60.48
2019-02-16T07:58:56.621Z,58.46
2019-02-16T08:04:06.204Z,57.05
2019-02-16T08:09:27.786Z,56.73
2019-02-16T08:14:58.347Z,56.31
2019-02-16T08:20:25.532Z,57.07
2019-02-16T08:25:38.572Z,57.62
2019-02-16T08:31:02.888Z,57.65
2019-02-16T08:36:36.125Z,56.80
2019-02-16T08:41:56.287Z,56.74
2019-02-16T08:47:04.233Z,55.44
2019-02-16T08:52:13.464Z,54.78
2019-02-16T08:57:35.813Z,53.81
2019-02-16T09:03:00.127Z,53.75
2019-02-16T09:08:10.675Z,52.98
2019-02-16T09:13:19.759Z,52.57
2019-02-16T09:18:49.742Z,51.68
2019-02-16T09:24:13.974Z,51.20
2019-02-16T09:29:27.200Z,50.74
2019-02-16T09:34:38.711Z,50.09
2019-02-16T09:39:50.627Z,48.85
2019-02-16T09:45:12.254Z,50.03
2019-02-16T09:50:20.391Z,48.02
2019-02-16T09:55:44.272Z,45.56
2019-02-16T10:00:52.190Z,45.88
2019-02-16T10:06:17.087Z,43.92
2019-02-16T10:11:32.934Z,42.99
2019-02-16T10:16:55.768Z,41.63
2019-02-16T10:22:07.638Z,40.96
2019-02-16T10:27:28.700Z,40.32
2019-02-16T10:32:49.264Z,40.03
2019-02-16T10:38:20.302Z,39.76
2019-02-16T10:43:45.119Z,40.62
2019-02-16T10:48:53.098Z,41.60
2019-02-16T10:54:02.100Z,38.96
2019-02-16T10:59:23.702Z,39.43
2019-02-16T11:04:49.447Z,39.03
2019-02-16T11:10:20.250Z,37.09
2019-02-16T11:15:49.601Z,37.31
2019-02-16T11:21:10.121Z,36.27
2019-02-16T11:26:34.523Z,36.18
2019-02-16T11:32:02.119Z,35.37
2019-02-16T11:37:18.406Z,35.64
2019-02-16T11:42:38.430Z,34.70
2019-02-16T11:47:48.577Z,34.13
2019-02-16T11:53:12.804Z,34.77
2019-02-16T11:58:27.024Z,32.72
2019-02-16T12:03:40.683Z,31.33
2019-02-16T12:08:55.874Z,30.13
2019-02-16T12:19:40.376Z,30.28
2019-02-16T12:25:05.670Z,30.08
2019-02-16T12:30:23.370Z,29.69
2019-02-16T12:35:41.600Z,28.85
2019-02-16T12:40:51.616Z,28.31
2019-02-16T12:46:07.181Z,27.80
2019-02-16T12:51:23.208Z,28.17
2019-02-16T12:56:33.702Z,27.70
2019-02-16T13:01:41.769Z,28.07
2019-02-16T13:06:57.067Z,28.32
2019-02-16T13:12:08.938Z,27.35
2019-02-16T13:17:28.869Z,27.71
2019-02-16T13:22:36.380Z,26.80
2019-02-16T13:28:00.779Z,27.07
2019-02-16T13:33:39.520Z,26.80
2019-02-16T13:39:03.802Z,28.58
2019-02-16T13:44:25.364Z,26.84
2019-02-16T13:49:52.695Z,26.26
2019-02-16T13:55:07.628Z,26.03
2019-02-16T14:00:41.532Z,26.31
2019-02-16T14:05:59.433Z,23.47
2019-02-16T14:11:17.870Z,22.89
2019-02-16T14:16:30.095Z,24.45
2019-02-16T14:21:31.985Z,23.65
2019-02-16T14:26:33.998Z,22.67
2019-02-16T14:31:35.995Z,21.25
2019-02-16T14:36:38.043Z,20.73
2019-02-16T14:41:40.004Z,18.92
2019-02-16T14:46:41.902Z,18.60
2019-02-16T14:51:43.841Z,18.32
2019-02-16T14:56:45.802Z,18.45
2019-02-16T15:01:47.830Z,17.89
2019-02-16T15:06:49.804Z,17.76
2019-02-16T15:11:51.819Z,15.95
2019-02-16T15:16:53.708Z,15.54
2019-02-16T15:21:55.944Z,16.13
2019-02-16T15:26:57.886Z,15.92
2019-02-16T15:31:59.785Z,15.70
2019-02-16T15:37:01.714Z,17.07
2019-02-16T15:42:03.625Z,17.99
2019-02-16T15:47:05.643Z,17.42
2019-02-16T15:52:07.745Z,18.00
2019-02-16T15:57:09.660Z,19.00
2019-02-16T16:02:11.698Z,20.31
2019-02-16T16:07:16.191Z,24.49
2019-02-16T16:12:37.745Z,27.08
2019-02-16T16:17:50.760Z,28.44
2019-02-16T16:23:00.289Z,29.77
2019-02-16T16:28:20.630Z,31.50
2019-02-16T16:33:42.305Z,31.54
2019-02-16T16:39:07.725Z,31.93
2019-02-16T16:44:25.604Z,32.29
2019-02-16T16:49:46.538Z,32.79
2019-02-16T16:55:08.153Z,33.00
2019-02-16T17:00:28.980Z,33.34
2019-02-16T17:05:52.675Z,33.85
2019-02-16T17:11:17.141Z,34.92
2019-02-16T17:16:38.439Z,34.97
2019-02-16T17:21:49.507Z,35.15
2019-02-16T17:27:22.366Z,35.62
2019-02-16T17:32:50.136Z,36.39
2019-02-16T17:38:05.617Z,37.58
2019-02-16T17:43:32.569Z,37.75
2019-02-16T17:48:41.222Z,38.57
2019-02-16T17:53:55.641Z,38.53
2019-02-16T17:59:03.275Z,38.54
2019-02-16T18:04:16.754Z,38.42
2019-02-16T18:09:37.100Z,38.77
2019-02-16T18:14:51.168Z,39.11
2019-02-16T18:20:04.355Z,39.89
2019-02-16T18:25:26.384Z,39.85
2019-02-16T18:30:37.965Z,40.13
2019-02-16T18:35:49.710Z,40.48
2019-02-16T18:41:08.614Z,41.00
2019-02-16T18:46:20.255Z,41.20
2019-02-16T18:51:54.013Z,41.30
2019-02-16T18:57:14.409Z,41.87
2019-02-16T19:02:35.251Z,42.24
2019-02-16T19:07:50.624Z,43.34
2019-02-16T19:13:04.910Z,44.24
2019-02-16T19:18:13.288Z,45.31
2019-02-16T19:23:28.808Z,46.41
2019-02-16T19:28:46.350Z,46.29
2019-02-16T19:34:11.912Z,46.55
2019-02-16T19:39:21.731Z,46.69
2019-02-16T19:44:41.985Z,47.28
2019-02-16T19:50:06.522Z,47.08
2019-02-16T19:55:19.376Z,47.28
2019-02-16T20:00:39.780Z,47.75
2019-02-16T20:05:51.524Z,48.16
2019-02-16T20:11:18.348Z,48.69
2019-02-16T20:16:29.327Z,48.57
2019-02-16T20:21:45.184Z,48.98
2019-02-16T20:27:12.695Z,49.06
2019-02-16T20:32:42.092Z,49.08
2019-02-16T20:37:54.003Z,49.46
2019-02-16T20:43:01.144Z,49.53
2019-02-16T20:48:16.334Z,49.77
2019-02-16T20:53:34.246Z,50.40
2019-02-16T20:58:42.226Z,50.68
2019-02-16T21:04:06.490Z,51.49
2019-02-16T21:09:21.023Z,51.68
2019-02-16T21:14:48.949Z,51.63
2019-02-16T21:19:58.721Z,51.61
2019-02-16T21:25:20.371Z,51.32
2019-02-16T21:30:40.922Z,51.48
2019-02-16T21:35:52.191Z,50.81
2019-02-16T21:41:02.091Z,51.04
2019-02-16T21:46:30.120Z,51.63
2019-02-16T21:51:45.315Z,52.14
2019-02-16T21:56:54.590Z,53.07
2019-02-16T22:02:22.245Z,53.62
2019-02-16T22:07:47.684Z,53.55
2019-02-16T22:13:05.032Z,52.39
2019-02-16T22:18:07.172Z,52.17
2019-02-16T22:23:09.067Z,52.24
2019-02-16T22:28:18.311Z,52.53
2019-02-16T22:33:15.016Z,52.26
2019-02-16T22:38:16.945Z,51.86
2019-02-16T22:43:18.856Z,52.14
2019-02-16T22:48:22.561Z,52.09
2019-02-16T22:53:25.549Z,51.59
2019-02-16T22:58:29.090Z,52.32
2019-02-16T23:03:31.463Z,52.41
2019-02-16T23:08:33.437Z,52.55
2019-02-16T23:13:36.768Z,52.71
2019-02-16T23:18:38.649Z,53.41
2019-02-16T23:23:40.743Z,54.02
2019-02-16T23:28:42.774Z,53.40
2019-02-16T23:33:44.706Z,53.41
2019-02-16T23:38:47.013Z,52.95
2019-02-16T23:43:49.024Z,52.61
2019-02-16T23:48:50.945Z,51.98
2019-02-16T23:53:53.066Z,51.60
2019-02-16T23:58:55.073Z,51.80
